Time;durP1;ratioP1;P1;durP2;ratioP2;P2;SDS_P1;SDS_P2;PMS_P1;PMS_P2;Temp;Humidity;BMP_temperature;BMP_pressure;BME280_temperature;BME280_humidity;BME280_pressure;Samples;Min_cycle;Max_cycle;Signal;HPM_P1;HPM_P2
2022/08/18 00:00:52;;;;;;;4.57;4.23;;;;;;;26.91;51.57;99042.78;4915237;29;20201;-71
2022/08/18 00:03:19;;;;;;;4.70;4.40;;;;;;;26.88;51.25;99038.75;4903508;29;20198;-70
2022/08/18 00:05:46;;;;;;;5.33;4.70;;;;;;;26.94;52.09;99037.50;4896611;29;20208;-70
2022/08/18 00:08:12;;;;;;;5.43;5.03;;;;;;;26.85;51.91;99039.38;4896206;29;20238;-70
2022/08/18 00:10:42;;;;;;;5.50;4.53;;;;;;;26.98;51.62;99037.66;4896562;29;20206;-70
2022/08/18 00:13:08;;;;;;;5.40;4.90;;;;;;;26.97;51.21;99042.31;4896558;29;20202;-71
2022/08/18 00:15:36;;;;;;;8.20;4.50;;;;;;;27.00;52.10;99035.44;4896339;29;20202;-71
2022/08/18 00:18:03;;;;;;;5.47;5.00;;;;;;;26.98;52.19;99037.66;4897011;29;20233;-71
2022/08/18 00:20:30;;;;;;;5.13;4.67;;;;;;;27.01;52.22;99034.31;4897141;29;20194;-71
2022/08/18 00:22:57;;;;;;;5.33;4.93;;;;;;;27.06;51.45;99034.16;4898539;29;20198;-71
2022/08/18 00:25:24;;;;;;;5.27;4.80;;;;;;;27.01;51.99;99037.84;4899890;29;20627;-71
2022/08/18 00:27:51;;;;;;;4.70;4.40;;;;;;;27.01;52.10;99031.59;4900441;29;20237;-71
2022/08/18 00:30:20;;;;;;;5.20;4.70;;;;;;;26.85;52.04;99046.75;4900114;29;20634;-71
2022/08/18 00:32:51;;;;;;;5.13;4.70;;;;;;;26.71;52.26;99038.63;4899446;29;20198;-71
2022/08/18 00:35:25;;;;;;;5.00;4.70;;;;;;;26.75;52.37;99034.19;4899672;29;20651;-71
2022/08/18 00:37:54;;;;;;;5.07;4.70;;;;;;;26.64;52.72;99032.84;4899896;29;20234;-70
2022/08/18 00:40:23;;;;;;;5.30;5.00;;;;;;;26.63;52.62;99024.97;4899664;29;20262;-70
2022/08/18 00:42:53;;;;;;;4.70;4.43;;;;;;;26.64;53.70;99032.03;4899827;29;20293;-69
2022/08/18 00:45:22;;;;;;;5.73;5.27;;;;;;;26.67;53.75;99031.41;4899595;29;20263;-69
2022/08/18 00:47:51;;;;;;;6.27;4.93;;;;;;;26.79;53.37;99034.38;4899114;29;20198;-71
2022/08/18 00:50:22;;;;;;;5.13;4.70;;;;;;;26.84;52.75;99036.97;4900021;29;20230;-71
2022/08/18 00:52:53;;;;;;;6.80;5.30;;;;;;;26.76;53.45;99035.00;4899905;29;20190;-72
2022/08/18 00:55:21;;;;;;;6.50;4.63;;;;;;;26.80;53.47;99036.78;4899578;29;20191;-71
2022/08/18 00:57:52;;;;;;;5.10;4.80;;;;;;;26.81;52.54;99037.56;4899160;29;20666;-71
2022/08/18 01:00:19;;;;;;;4.93;4.53;;;;;;;26.61;53.04;99046.28;4899223;29;20194;-71
2022/08/18 01:02:51;;;;;;;7.77;5.07;;;;;;;26.70;53.60;99041.72;4906951;29;20276;-70
2022/08/18 01:05:24;;;;;;;6.10;4.90;;;;;;;26.74;53.13;99037.25;4918306;29;20197;-70
2022/08/18 01:07:51;;;;;;;5.47;5.17;;;;;;;26.82;53.26;99045.44;4918003;29;20193;-71
2022/08/18 01:10:20;;;;;;;5.37;4.93;;;;;;;26.84;53.43;99043.22;4918159;29;20256;-72
2022/08/18 01:12:50;;;;;;;5.23;4.77;;;;;;;26.89;53.22;99045.81;4919178;29;20225;-70
2022/08/18 01:15:19;;;;;;;14.10;5.40;;;;;;;26.88;53.18;99043.41;4917393;29;20201;-70
2022/08/18 01:23:30;;;;;;;4.73;4.43;;;;;;;26.62;54.04;99045.97;4917885;29;20244;-70
2022/08/18 01:25:59;;;;;;;5.07;4.70;;;;;;;26.67;53.85;99045.03;4911052;29;20201;-71
2022/08/18 01:28:26;;;;;;;5.70;5.40;;;;;;;26.58;53.17;99044.97;4917797;29;20628;-71
2022/08/18 01:30:57;;;;;;;5.87;5.37;;;;;;;26.58;53.43;99046.91;4917255;29;20206;-71
2022/08/18 01:33:25;;;;;;;5.70;5.20;;;;;;;26.38;53.47;99045.44;4916696;29;20198;-71
2022/08/18 01:35:53;;;;;;;5.33;4.83;;;;;;;26.42;53.46;99045.66;4917721;29;20193;-71
2022/08/18 01:38:22;;;;;;;11.03;5.13;;;;;;;26.50;53.62;99037.50;4917526;29;20554;-71
2022/08/18 01:40:50;;;;;;;5.20;4.73;;;;;;;26.37;53.57;99043.06;4916894;29;20236;-70
2022/08/18 01:43:18;;;;;;;5.40;5.00;;;;;;;25.98;54.82;99042.88;4917112;29;20289;-70
2022/08/18 01:45:44;;;;;;;5.00;4.70;;;;;;;26.10;54.66;99037.69;4917108;29;20589;-70
2022/08/18 01:48:11;;;;;;;5.90;5.23;;;;;;;26.15;54.38;99043.03;4917137;29;20198;-72
2022/08/18 01:50:40;;;;;;;5.47;5.07;;;;;;;26.25;54.29;99040.06;4917557;29;20198;-71
2022/08/18 01:53:09;;;;;;;4.93;4.63;;;;;;;26.14;54.37;99039.50;4917182;29;20193;-71
2022/08/18 01:55:37;;;;;;;8.73;5.37;;;;;;;25.96;54.16;99047.84;4917393;29;20633;-71
2022/08/18 01:58:07;;;;;;;8.27;5.40;;;;;;;25.71;55.01;99045.63;4917416;29;20344;-72
2022/08/18 02:00:34;;;;;;;5.57;5.00;;;;;;;25.88;56.34;99046.59;4917072;29;20683;-71
2022/08/18 02:03:01;;;;;;;6.50;4.93;;;;;;;25.86;55.53;99037.13;4907748;29;20202;-71
2022/08/18 02:05:32;;;;;;;6.43;5.93;;;;;;;25.97;54.61;99038.56;4898004;29;20633;-71
2022/08/18 02:07:59;;;;;;;10.67;5.17;;;;;;;26.05;55.61;99040.53;4897642;29;20198;-71
2022/08/18 02:10:26;;;;;;;5.70;5.17;;;;;;;25.99;56.11;99028.97;4898230;29;20225;-71
2022/08/18 02:12:53;;;;;;;5.53;5.03;;;;;;;25.99;54.53;99037.13;4898099;29;20200;-71
2022/08/18 02:15:21;;;;;;;6.23;4.80;;;;;;;25.77;54.83;99039.78;4898023;29;20202;-71
2022/08/18 02:17:48;;;;;;;6.40;5.50;;;;;;;25.76;54.56;99037.38;4897825;29;20684;-71
2022/08/18 02:20:18;;;;;;;5.17;4.87;;;;;;;25.77;54.77;99036.25;4897509;29;20206;-71
2022/08/18 02:22:45;;;;;;;5.93;5.60;;;;;;;25.82;55.01;99042.41;4897576;29;20253;-71
2022/08/18 02:25:14;;;;;;;5.60;5.30;;;;;;;25.82;54.68;99041.56;4897297;29;20234;-71
2022/08/18 02:27:41;;;;;;;5.00;4.63;;;;;;;25.83;54.63;99045.91;4897490;29;20666;-72
2022/08/18 02:30:12;;;;;;;9.13;5.43;;;;;;;26.00;55.30;99043.41;4897641;29;20229;-71
2022/08/18 02:32:41;;;;;;;5.77;5.47;;;;;;;26.11;54.48;99044.75;4897757;29;20198;-71
2022/08/18 02:35:09;;;;;;;5.93;5.63;;;;;;;26.07;55.05;99041.03;4897317;29;20202;-71
2022/08/18 02:37:36;;;;;;;5.60;5.10;;;;;;;25.80;54.32;99044.59;4897725;29;20292;-72
2022/08/18 02:40:04;;;;;;;5.43;5.00;;;;;;;25.66;55.21;99037.56;4897544;29;20291;-71
2022/08/18 02:42:31;;;;;;;6.07;5.63;;;;;;;25.65;55.67;99038.69;4897972;29;20205;-72
2022/08/18 02:44:58;;;;;;;10.93;6.20;;;;;;;25.53;55.74;99035.69;4897164;29;20691;-70
2022/08/18 02:47:24;;;;;;;7.67;5.77;;;;;;;25.49;56.52;99034.69;4897673;29;20261;-70
2022/08/18 02:49:52;;;;;;;5.30;4.93;;;;;;;25.62;56.87;99033.84;4896797;29;20229;-71
2022/08/18 02:52:19;;;;;;;6.17;5.60;;;;;;;25.57;55.55;99033.97;4897121;29;20269;-70
2022/08/18 02:54:47;;;;;;;5.87;5.27;;;;;;;25.19;57.23;99030.63;4897149;29;20661;-71
2022/08/18 02:57:13;;;;;;;6.90;5.90;;;;;;;25.22;56.98;99031.94;4897085;29;20202;-71
2022/08/18 02:59:41;;;;;;;5.70;5.30;;;;;;;25.34;56.86;99030.34;4897479;29;20273;-71
2022/08/18 03:02:08;;;;;;;8.77;8.13;;;;;;;25.40;56.54;99041.94;4899715;29;20198;-70
2022/08/18 03:04:36;;;;;;;8.10;6.20;;;;;;;25.53;57.07;99039.22;4915667;29;20672;-72
2022/08/18 03:07:07;;;;;;;6.97;6.57;;;;;;;25.64;55.56;99050.69;4916325;29;20233;-73
2022/08/18 03:09:35;;;;;;;12.43;5.47;;;;;;;25.68;56.06;99051.69;4916193;29;20264;-72
2022/08/18 03:12:03;;;;;;;6.73;5.77;;;;;;;25.73;55.74;99048.84;4915332;29;20201;-72
2022/08/18 03:14:30;;;;;;;5.87;5.43;;;;;;;25.74;55.72;99045.03;4916351;29;20197;-72
2022/08/18 03:16:57;;;;;;;6.17;5.53;;;;;;;25.71;55.55;99051.06;4915659;29;20201;-72
2022/08/18 03:19:27;;;;;;;6.10;5.57;;;;;;;25.55;55.87;99041.63;4916172;29;20197;-72
2022/08/18 03:21:55;;;;;;;7.83;7.00;;;;;;;25.47;55.86;99047.78;4916163;29;20252;-72
2022/08/18 03:24:23;;;;;;;6.53;6.10;;;;;;;25.41;55.56;99052.53;4916202;29;20264;-72
2022/08/18 03:26:52;;;;;;;6.03;5.73;;;;;;;25.43;55.94;99047.56;4915381;29;20205;-72
2022/08/18 03:29:18;;;;;;;5.83;5.30;;;;;;;25.36;55.90;99054.53;4915508;29;20228;-71
2022/08/18 03:31:47;;;;;;;6.53;5.87;;;;;;;25.33;55.94;99049.69;4915596;29;20606;-72
2022/08/18 03:34:18;;;;;;;6.67;6.10;;;;;;;25.32;55.75;99056.25;4915430;29;20205;-72
2022/08/18 03:36:45;;;;;;;7.57;5.83;;;;;;;25.15;55.62;99042.41;4915980;29;20213;-72
2022/08/18 03:39:13;;;;;;;5.87;5.57;;;;;;;25.14;56.19;99046.25;4915643;29;20232;-71
2022/08/18 03:41:43;;;;;;;6.80;6.10;;;;;;;25.13;56.45;99044.63;4915503;29;20570;-71
2022/08/18 03:44:10;;;;;;;8.57;4.97;;;;;;;25.24;55.57;99043.31;4915680;29;20201;-71
2022/08/18 03:46:37;;;;;;;5.63;5.23;;;;;;;25.35;55.17;99047.50;4915400;29;20653;-71
2022/08/18 03:49:04;;;;;;;8.47;5.97;;;;;;;25.69;54.92;99047.84;4915604;29;20296;-71
2022/08/18 03:51:34;;;;;;;7.00;5.33;;;;;;;25.88;54.57;99051.25;4915927;29;20205;-72
2022/08/18 03:54:03;;;;;;;9.13;5.80;;;;;;;26.03;53.63;99054.47;4916347;29;20601;-72
2022/08/18 03:56:33;;;;;;;5.50;5.10;;;;;;;26.37;53.66;99056.69;4914930;29;20197;-71
2022/08/18 03:59:03;;;;;;;6.17;5.57;;;;;;;26.74;51.54;99064.50;4919161;29;20201;-71
2022/08/18 04:01:32;;;;;;;6.20;5.57;;;;;;;27.22;50.75;99066.22;4919112;29;20240;-71
2022/08/18 04:04:02;;;;;;;5.73;5.33;;;;;;;27.44;49.23;99063.41;4902268;29;20738;-73
2022/08/18 04:06:33;;;;;;;6.40;5.43;;;;;;;27.64;48.58;99072.94;4900311;29;20250;-73
2022/08/18 04:09:03;;;;;;;7.57;5.20;;;;;;;28.13;47.59;99062.44;4901244;29;20275;-72
2022/08/18 04:11:32;;;;;;;13.67;5.53;;;;;;;28.70;46.42;99069.34;4900717;29;20234;-73
2022/08/18 04:13:59;;;;;;;11.17;5.63;;;;;;;29.04;45.02;99073.97;4900484;29;20198;-73
2022/08/18 04:16:31;;;;;;;5.20;4.70;;;;;;;29.40;44.44;99074.31;4900304;29;20266;-73
2022/08/18 04:19:00;;;;;;;11.23;5.63;;;;;;;29.79;43.05;99081.38;4900142;29;20214;-73
2022/08/18 04:21:30;;;;;;;6.47;5.07;;;;;;;30.13;42.51;99084.69;4899929;29;20292;-73
2022/08/18 04:23:58;;;;;;;5.57;4.90;;;;;;;30.45;41.00;99089.47;4899801;29;20289;-71
2022/08/18 04:26:25;;;;;;;5.77;4.50;;;;;;;30.65;41.11;99091.38;4899261;29;20683;-71
2022/08/18 04:28:52;;;;;;;9.30;5.13;;;;;;;30.78;40.56;99095.78;4899752;29;20198;-72
2022/08/18 04:31:23;;;;;;;5.90;4.80;;;;;;;30.97;39.81;99100.75;4899874;29;20198;-71
2022/08/18 04:33:51;;;;;;;8.47;5.10;;;;;;;31.00;39.57;99103.66;4899490;29;20214;-73
2022/08/18 04:36:18;;;;;;;7.93;4.90;;;;;;;31.08;38.33;99102.75;4899428;29;20678;-73
2022/08/18 04:38:45;;;;;;;6.37;4.83;;;;;;;31.26;38.22;99106.94;4899389;29;20202;-72
2022/08/18 04:41:13;;;;;;;5.43;5.13;;;;;;;31.05;37.65;99100.69;4899536;29;20245;-74
2022/08/18 04:43:40;;;;;;;6.07;4.70;;;;;;;31.34;37.26;99106.03;4899735;29;20205;-73
2022/08/18 04:46:08;;;;;;;4.90;4.60;;;;;;;31.51;37.00;99107.75;4898989;29;20898;-73
2022/08/18 04:48:37;;;;;;;4.50;4.10;;;;;;;31.86;36.79;99103.44;4899857;29;20199;-73
2022/08/18 04:51:08;;;;;;;5.80;5.40;;;;;;;31.79;36.50;99104.03;4899389;29;20282;-72
2022/08/18 04:53:43;;;;;;;5.80;4.13;;;;;;;31.83;36.59;99104.13;4900497;29;20198;-73
2022/08/18 04:56:14;;;;;;;4.80;4.40;;;;;;;31.73;36.59;99110.84;4898988;29;20194;-72
2022/08/18 04:58:41;;;;;;;5.53;4.97;;;;;;;31.99;36.53;99107.78;4899548;29;20186;-73
2022/08/18 05:01:08;;;;;;;5.97;4.77;;;;;;;32.27;36.29;99101.19;4899119;29;20206;-73
2022/08/18 05:03:37;;;;;;;5.10;4.70;;;;;;;32.25;36.00;99111.72;4912578;29;20250;-72
2022/08/18 05:06:07;;;;;;;5.43;5.03;;;;;;;32.28;36.16;99115.72;4917615;29;20197;-71
2022/08/18 05:08:34;;;;;;;12.70;4.63;;;;;;;32.40;35.58;99105.53;4916695;29;20284;-71
2022/08/18 05:11:00;;;;;;;5.93;5.00;;;;;;;32.90;35.11;99102.25;4917506;29;20293;-72
2022/08/18 05:13:27;;;;;;;6.00;5.00;;;;;;;33.26;34.35;99097.34;4917712;29;20721;-71
2022/08/18 05:15:55;;;;;;;5.90;5.27;;;;;;;33.16;34.52;99103.38;4917996;29;20197;-74
2022/08/18 05:18:23;;;;;;;21.33;6.13;;;;;;;33.50;34.15;99101.91;4912157;29;20244;-73
2022/08/18 05:20:51;;;;;;;5.23;4.83;;;;;;;33.56;33.81;99116.22;4898536;29;20198;-79
2022/08/18 05:23:19;;;;;;;19.37;5.83;;;;;;;33.47;33.77;99099.84;4899009;29;20321;-78
2022/08/18 05:25:46;;;;;;;7.27;4.30;;;;;;;33.83;33.01;99107.06;4917312;29;20261;-76
2022/08/18 05:28:13;;;;;;;5.03;4.55;;;;;;;34.05;32.97;99103.66;4917595;29;20725;-77
2022/08/18 05:30:41;;;;;;;7.47;4.17;;;;;;;34.49;32.01;99111.34;4917789;29;20311;-77
2022/08/18 05:33:10;;;;;;;7.72;5.15;;;;;;;34.35;31.59;99107.50;4917780;29;20206;-77
2022/08/18 05:35:42;;;;;;;5.70;5.00;;;;;;;34.39;32.09;99106.41;4917870;29;20193;-75
2022/08/18 05:38:25;;;;;;;9.23;5.70;;;;;;;34.56;31.70;99105.16;4918096;29;20630;-75
2022/08/18 05:41:07;;;;;;;7.05;5.40;;;;;;;34.50;31.79;99107.41;4918160;29;20201;-77
2022/08/18 05:43:36;;;;;;;10.52;5.47;;;;;;;34.74;31.33;99117.38;4917250;29;20740;-77
2022/08/18 05:46:05;;;;;;;7.07;5.72;;;;;;;35.13;30.53;99105.13;4917564;29;20197;-75
2022/08/18 05:48:32;;;;;;;5.57;5.10;;;;;;;35.33;30.06;99112.25;4917042;29;20197;-75
2022/08/18 05:51:11;;;;;;;4.78;4.32;;;;;;;35.48;30.27;99116.84;4917655;29;20225;-77
2022/08/18 05:56:47;;;;;;;7.40;4.20;;;;;;;36.38;28.66;99114.72;4917370;29;20290;-73
2022/08/18 05:59:21;;;;;;;9.20;4.40;;;;;;;36.56;28.75;99112.19;4917206;29;20265;-73
2022/08/18 06:01:55;;;;;;;20.65;5.20;;;;;;;36.67;28.34;99102.81;4898687;29;20233;-72
2022/08/18 06:04:42;;;;;;;4.57;3.83;;;;;;;36.65;28.46;99107.16;4886666;29;20185;-73
2022/08/18 06:07:13;;;;;;;6.88;4.00;;;;;;;36.61;28.45;99115.44;4897967;29;20249;-71
2022/08/18 06:09:47;;;;;;;5.30;4.10;;;;;;;36.57;28.28;99117.34;4897414;29;20682;-70
2022/08/18 06:12:22;;;;;;;4.10;3.80;;;;;;;36.29;28.90;99114.22;4897773;29;20723;-71
2022/08/18 06:14:49;;;;;;;4.72;4.15;;;;;;;36.51;29.38;99112.53;4909798;29;20291;-73
2022/08/18 06:17:37;;;;;;;5.38;4.13;;;;;;;36.72;28.83;99107.28;4912881;29;20206;-70
2022/08/18 06:20:13;;;;;;;4.78;4.40;;;;;;;36.14;28.97;99111.59;4897397;29;20632;-71
2022/08/18 06:22:48;;;;;;;6.35;4.28;;;;;;;36.57;29.11;99116.53;4894348;29;20210;-69
2022/08/18 06:25:22;;;;;;;6.47;4.10;;;;;;;36.51;29.32;99116.09;4880043;29;20794;-72
2022/08/18 06:28:00;;;;;;;4.97;4.20;;;;;;;36.28;29.08;99114.59;4893929;29;21894;-71
2022/08/18 06:30:46;;;;;;;4.45;4.00;;;;;;;36.14;29.59;99106.06;4875439;29;20214;-70
2022/08/18 06:33:32;;;;;;;4.28;3.90;;;;;;;36.20;29.08;99101.78;4878719;29;20651;-70
2022/08/18 06:36:02;;;;;;;7.68;3.95;;;;;;;36.20;29.27;99115.63;4878896;29;20268;-69
2022/08/18 06:38:40;;;;;;;6.60;4.40;;;;;;;35.40;30.42;99112.38;4878650;29;20258;-70
2022/08/18 06:41:16;;;;;;;5.63;4.22;;;;;;;35.65;30.55;99121.88;4892428;29;20198;-70
2022/08/18 06:43:58;;;;;;;6.75;4.25;;;;;;;35.93;30.41;99114.06;4895351;29;20261;-73
2022/08/18 06:46:34;;;;;;;4.20;3.90;;;;;;;36.38;29.38;99119.47;4895651;29;20190;-74
2022/08/18 06:49:05;;;;;;;6.82;3.75;;;;;;;36.50;29.43;99116.47;4896476;29;20570;-70
2022/08/18 06:51:35;;;;;;;11.82;4.32;;;;;;;36.46;29.20;99110.09;4898000;29;20213;-73
2022/08/18 06:54:04;;;;;;;9.63;4.13;;;;;;;36.58;29.50;99115.41;4897079;29;20201;-72
2022/08/18 06:56:48;;;;;;;9.35;4.43;;;;;;;36.29;29.17;99130.03;4897099;29;20275;-73
2022/08/18 06:59:19;;;;;;;5.07;4.30;;;;;;;36.32;28.61;99121.78;4897289;29;20194;-74
2022/08/18 07:01:48;;;;;;;11.40;4.13;;;;;;;36.17;29.38;99119.94;4890896;29;20231;-71
2022/08/18 07:04:37;;;;;;;4.30;4.00;;;;;;;35.83;29.80;99118.25;4890191;29;20280;-73
2022/08/18 07:07:19;;;;;;;5.63;3.90;;;;;;;35.85;30.04;99121.44;4894368;29;20224;-72
2022/08/18 07:09:47;;;;;;;4.70;4.30;;;;;;;35.38;29.81;99106.41;4895260;29;20190;-73
2022/08/18 07:12:23;;;;;;;5.72;4.20;;;;;;;35.63;30.27;99116.72;4895118;29;20198;-71
2022/08/18 07:14:53;;;;;;;6.60;4.70;;;;;;;35.36;30.42;99094.94;4895391;29;20189;-75
2022/08/18 07:17:24;;;;;;;7.47;4.53;;;;;;;35.66;29.94;99115.16;4895991;29;20194;-71
2022/08/18 07:20:00;;;;;;;4.50;4.18;;;;;;;35.91;30.38;99102.56;4895369;29;20254;-72
2022/08/18 07:22:27;;;;;;;4.40;4.05;;;;;;;36.26;28.96;99111.41;4895751;29;20677;-77
2022/08/18 07:24:58;;;;;;;7.75;4.40;;;;;;;36.24;28.89;99119.28;4896411;29;20293;-75
2022/08/18 07:30:29;;;;;;;4.70;4.40;;;;;;;36.01;29.75;99113.00;5109244;27;21111;-71
2022/08/18 07:33:02;;;;;;;54.63;7.95;;;;;;;36.27;29.41;99113.00;5109482;28;20255;-73
2022/08/18 07:35:37;;;;;;;16.50;4.88;;;;;;;36.58;29.14;99115.41;5108447;28;20248;-72
2022/08/18 07:38:16;;;;;;;4.90;4.20;;;;;;;36.76;28.86;99105.34;5110108;28;20277;-72
2022/08/18 07:40:47;;;;;;;4.15;3.83;;;;;;;36.61;28.54;99101.59;5109831;28;20187;-72
2022/08/18 07:43:19;;;;;;;4.80;4.18;;;;;;;36.85;28.92;99100.28;5109419;28;20183;-72
2022/08/18 07:45:48;;;;;;;13.90;4.65;;;;;;;37.36;28.17;99109.56;5109988;28;20186;-71
2022/08/18 07:48:18;;;;;;;22.35;5.15;;;;;;;36.90;28.27;99113.81;5109781;28;20214;-80
2022/08/18 07:50:56;;;;;;;39.65;6.78;;;;;;;36.62;28.80;99099.63;5109301;28;20236;-73
2022/08/18 07:53:36;;;;;;;7.72;4.93;;;;;;;37.10;28.96;99095.81;5109518;28;20183;-78
2022/08/18 07:56:14;;;;;;;24.55;5.03;;;;;;;37.54;28.86;99093.88;5108888;28;20190;-71
2022/08/18 07:58:50;;;;;;;18.65;4.60;;;;;;;37.36;28.63;99101.25;5095582;28;20206;-72
2022/08/18 08:01:23;;;;;;;32.50;5.78;;;;;;;36.97;28.98;99100.03;5096067;28;20194;-73
2022/08/18 08:03:58;;;;;;;5.93;4.10;;;;;;;36.91;28.41;99096.03;5108792;27;20191;-72
2022/08/18 08:06:33;;;;;;;11.93;3.80;;;;;;;37.16;28.28;99094.34;5109588;28;20275;-77
2022/08/18 08:09:09;;;;;;;5.25;4.07;;;;;;;37.26;27.84;99093.63;5105776;28;20218;-71
2022/08/18 08:11:46;;;;;;;4.63;4.13;;;;;;;37.36;27.93;99084.63;5088428;28;20622;-69
2022/08/18 08:14:26;;;;;;;4.45;4.00;;;;;;;37.16;28.63;99083.25;5112820;28;20178;-71
2022/08/18 08:17:06;;;;;;;8.40;4.25;;;;;;;36.81;28.44;99078.13;5108881;28;20607;-70
2022/08/18 08:19:59;;;;;;;10.15;4.05;;;;;;;36.69;28.38;99083.09;5109022;28;20187;-70
2022/08/18 08:22:31;;;;;;;4.13;3.83;;;;;;;36.53;28.40;99057.56;5108981;28;20214;-70
2022/08/18 08:25:05;;;;;;;6.28;3.70;;;;;;;36.96;28.47;99074.31;5108518;28;20668;-69
2022/08/18 08:27:43;;;;;;;5.15;4.07;;;;;;;36.77;28.64;99062.63;5108557;28;20661;-67
2022/08/18 08:30:13;;;;;;;4.15;3.95;;;;;;;36.96;28.12;99063.22;5109093;28;20234;-67
2022/08/18 08:32:55;;;;;;;6.47;3.90;;;;;;;36.92;28.62;99072.69;5108355;28;20247;-66
2022/08/18 08:35:31;;;;;;;5.97;3.90;;;;;;;37.10;27.62;99066.16;5108466;28;20270;-74
2022/08/18 08:37:59;;;;;;;3.72;3.40;;;;;;;37.32;27.55;99067.16;5108050;28;20252;-76
2022/08/18 08:40:37;;;;;;;8.23;3.78;;;;;;;37.09;26.62;99067.31;5101531;28;20657;-73
2022/08/18 08:43:09;;;;;;;5.22;3.63;;;;;;;37.05;26.00;99068.47;5094843;28;20215;-73
2022/08/18 08:45:43;;;;;;;3.67;3.38;;;;;;;37.08;26.11;99073.25;5095328;28;20187;-77
2022/08/18 08:48:17;;;;;;;6.30;3.28;;;;;;;37.49;26.49;99069.28;5095130;28;20179;-78
2022/08/18 08:50:51;;;;;;;4.05;3.75;;;;;;;37.98;26.04;99061.34;5094955;28;20281;-73
2022/08/18 08:53:23;;;;;;;3.47;3.15;;;;;;;37.98;25.39;99066.88;5094194;28;20677;-70
2022/08/18 08:55:55;;;;;;;3.80;3.40;;;;;;;38.15;24.89;99074.53;5094967;28;20411;-69
2022/08/18 08:58:27;;;;;;;5.63;3.65;;;;;;;38.11;24.64;99061.81;5094995;28;20211;-69
2022/08/18 09:00:56;;;;;;;3.70;3.40;;;;;;;38.35;24.35;99064.72;5094573;28;20183;-70
2022/08/18 09:03:35;;;;;;;5.30;3.83;;;;;;;38.26;24.67;99064.31;5093932;28;20195;-71
2022/08/18 09:06:12;;;;;;;4.00;3.67;;;;;;;37.60;24.59;99052.75;5094608;28;20194;-73
2022/08/18 09:08:54;;;;;;;12.35;4.32;;;;;;;37.95;24.95;99062.09;5089235;28;20204;-73
2022/08/18 09:11:39;;;;;;;8.93;3.40;;;;;;;37.61;26.10;99059.91;5082490;28;20199;-75
2022/08/18 09:14:50;;;;;;;3.60;3.30;;;;;;;38.08;25.03;99057.84;5102787;28;20646;-73
2022/08/18 09:17:39;;;;;;;3.72;3.42;;;;;;;38.05;24.86;99046.75;5094268;28;20187;-70
2022/08/18 09:20:25;;;;;;;4.10;3.78;;;;;;;38.37;24.15;99053.25;5090061;28;20210;-68
2022/08/18 09:22:59;;;;;;;10.15;3.30;;;;;;;38.36;23.57;99046.88;5089929;28;20667;-74
2022/08/18 09:25:46;;;;;;;3.42;3.17;;;;;;;38.72;23.06;99048.63;5094066;28;20191;-74
2022/08/18 09:28:17;;;;;;;3.28;3.08;;;;;;;38.79;22.24;99054.22;5093961;28;20237;-74
2022/08/18 09:30:50;;;;;;;3.28;3.08;;;;;;;38.49;22.22;99050.91;5094344;28;20214;-71
2022/08/18 09:33:23;;;;;;;6.80;3.20;;;;;;;38.43;22.30;99044.13;5093979;28;20184;-77
2022/08/18 09:36:12;;;;;;;5.20;4.88;;;;;;;38.66;22.04;99039.06;5093493;28;20195;-68
2022/08/18 09:41:46;;;;;;;10.50;9.32;;;;;;;38.69;22.30;99048.59;5093606;28;20187;-68
2022/08/18 09:44:34;;;;;;;5.90;5.47;;;;;;;38.76;22.90;99043.88;5093558;28;20548;-70
2022/08/18 09:47:01;;;;;;;3.80;3.50;;;;;;;38.94;23.16;99046.72;5093798;28;20199;-72
2022/08/18 09:49:45;;;;;;;4.15;3.88;;;;;;;38.71;23.44;99047.03;5093416;28;20723;-74
2022/08/18 09:52:45;;;;;;;4.22;3.40;;;;;;;38.70;22.54;99045.44;5092310;28;20219;-74
2022/08/18 09:55:39;;;;;;;4.32;3.83;;;;;;;39.12;22.94;99050.31;5091033;28;20203;-74
2022/08/18 09:58:20;;;;;;;9.35;4.15;;;;;;;38.47;23.25;99036.66;5093676;28;20274;-71
2022/08/18 10:01:19;;;;;;;4.25;3.58;;;;;;;38.85;23.94;99035.94;5093249;28;20184;-72
2022/08/18 10:04:26;;;;;;;7.18;4.05;;;;;;;38.68;22.92;99031.16;5089649;28;20191;-72
2022/08/18 10:06:53;;;;;;;6.38;3.67;;;;;;;38.80;23.23;99028.00;5093580;28;20256;-78
2022/08/18 10:09:30;;;;;;;3.67;3.50;;;;;;;38.81;24.03;99018.47;5082534;28;20277;-72
2022/08/18 10:12:25;;;;;;;15.02;4.55;;;;;;;39.27;22.85;99026.91;5072829;28;20651;-79
2022/08/18 10:15:07;;;;;;;5.03;3.55;;;;;;;38.96;23.05;99030.44;5102762;28;20609;-72
2022/08/18 10:17:49;;;;;;;6.47;4.05;;;;;;;38.85;23.09;99012.91;5106947;28;20186;-70
2022/08/18 10:20:30;;;;;;;3.80;3.60;;;;;;;38.53;24.19;99012.84;5093269;28;20208;-69
2022/08/18 10:22:56;;;;;;;4.63;3.95;;;;;;;38.76;23.67;99021.66;5092821;28;20195;-71
2022/08/18 10:25:39;;;;;;;3.90;3.60;;;;;;;38.68;23.78;99013.69;5093070;28;20191;-70
2022/08/18 10:28:10;;;;;;;4.93;3.80;;;;;;;38.98;23.76;99019.75;5093070;28;20284;-69
2022/08/18 10:31:06;;;;;;;4.10;3.55;;;;;;;38.67;23.57;99012.91;5092758;28;20279;-69
2022/08/18 10:33:56;;;;;;;7.25;3.47;;;;;;;38.89;23.34;99008.97;5093302;28;20662;-69
2022/08/18 10:36:45;;;;;;;5.78;4.28;;;;;;;38.70;23.41;99001.00;5092259;28;20638;-67
2022/08/18 10:39:15;;;;;;;4.55;4.10;;;;;;;38.92;23.50;99008.22;5092769;28;20719;-69
2022/08/18 10:41:55;;;;;;;3.72;3.42;;;;;;;39.35;22.49;99004.28;5092673;28;20669;-70
2022/08/18 10:44:26;;;;;;;4.43;4.00;;;;;;;38.83;23.55;99005.00;5092728;28;20184;-68
2022/08/18 10:46:53;;;;;;;3.45;3.30;;;;;;;38.41;24.15;99007.63;5092788;28;20192;-69
2022/08/18 10:49:25;;;;;;;3.72;3.40;;;;;;;38.49;23.58;98998.16;5091891;28;20260;-70
2022/08/18 10:52:11;;;;;;;6.55;3.70;;;;;;;38.37;23.33;99004.03;5089849;28;20562;-70
2022/08/18 10:55:03;;;;;;;4.03;3.70;;;;;;;38.60;23.57;98995.41;5092711;28;20195;-71
2022/08/18 10:57:36;;;;;;;4.45;3.83;;;;;;;38.49;22.92;98989.84;5092640;28;20183;-69
2022/08/18 11:00:12;;;;;;;5.22;4.10;;;;;;;38.28;23.83;99000.84;5093153;28;20194;-70
2022/08/18 11:02:55;;;;;;;4.43;4.05;;;;;;;38.30;23.04;98995.72;5092305;28;20193;-68
2022/08/18 11:05:25;;;;;;;3.85;3.55;;;;;;;38.14;24.40;98986.94;5092470;28;20245;-69
2022/08/18 11:08:01;;;;;;;5.03;3.67;;;;;;;38.05;23.36;98992.03;5092549;28;20183;-68
2022/08/18 11:10:42;;;;;;;3.75;3.55;;;;;;;38.20;23.19;98988.13;5071815;28;20204;-68
2022/08/18 11:13:20;;;;;;;3.58;3.38;;;;;;;38.34;22.63;98988.19;5073156;28;20192;-67
2022/08/18 11:16:03;;;;;;;7.47;3.83;;;;;;;38.58;22.67;98976.38;5112537;28;20554;-66
2022/08/18 11:18:35;;;;;;;6.63;3.67;;;;;;;38.83;23.01;98985.56;5112469;28;20240;-66
2022/08/18 11:21:30;;;;;;;6.43;3.53;;;;;;;38.90;23.46;98982.78;5112271;28;20191;-67
2022/08/18 11:24:10;;;;;;;4.80;4.43;;;;;;;38.84;23.19;98975.22;5092230;28;20209;-66
2022/08/18 11:26:39;;;;;;;6.05;4.30;;;;;;;39.11;22.57;98971.69;5092078;28;20222;-67
2022/08/18 11:29:31;;;;;;;5.85;3.92;;;;;;;38.70;23.56;98959.31;5092258;28;20231;-68
2022/08/18 11:32:04;;;;;;;9.75;4.63;;;;;;;39.00;23.46;98962.56;5092818;28;20179;-66
2022/08/18 11:34:36;;;;;;;7.53;3.80;;;;;;;39.36;22.94;98960.59;5092197;28;20248;-67
2022/08/18 11:37:06;;;;;;;5.65;3.97;;;;;;;39.46;22.59;98955.00;5091975;28;20218;-70
2022/08/18 11:39:34;;;;;;;8.93;4.30;;;;;;;39.30;23.07;98951.00;5092032;28;20620;-67
2022/08/18 11:42:01;;;;;;;6.75;3.95;;;;;;;39.15;23.29;98939.13;5091769;28;20551;-68
2022/08/18 11:44:32;;;;;;;4.43;3.65;;;;;;;39.01;23.43;98961.38;5091907;28;20195;-67
2022/08/18 11:47:14;;;;;;;5.07;3.70;;;;;;;38.89;23.68;98953.41;5092174;28;20194;-69
2022/08/18 11:49:57;;;;;;;4.05;3.75;;;;;;;38.54;23.71;98947.03;5092477;28;20206;-68
2022/08/18 11:52:26;;;;;;;4.18;3.95;;;;;;;38.61;23.90;98952.59;5091773;28;20192;-67
2022/08/18 11:55:00;;;;;;;10.23;3.78;;;;;;;38.84;23.51;98939.91;5092029;28;20260;-68
2022/08/18 11:57:39;;;;;;;5.15;3.70;;;;;;;39.09;23.06;98939.94;5092372;28;20184;-69
2022/08/18 12:00:40;;;;;;;3.97;3.60;;;;;;;38.82;23.44;98928.38;5091675;28;20697;-68
2022/08/18 12:03:17;;;;;;;5.47;4.03;;;;;;;39.01;23.00;98938.34;5091207;28;20591;-70
2022/08/18 12:05:48;;;;;;;4.50;3.88;;;;;;;38.93;22.38;98937.56;5092004;28;20194;-68
2022/08/18 12:08:26;;;;;;;4.10;3.72;;;;;;;38.57;22.67;98932.34;5090226;28;20216;-66
2022/08/18 12:11:03;;;;;;;5.80;4.03;;;;;;;38.70;22.25;98934.34;5071945;28;20257;-68
2022/08/18 12:13:31;;;;;;;3.72;3.53;;;;;;;38.48;22.41;98938.28;5078583;28;20182;-67